Disclaimer

Please do not use the information listed here in-flight or in-navigation, as they are not provided to us by the airports but are provided by volunteers, so they might be outdated.

Search


Regions


Airport information page

Radio informations:
Brisbane Center - 135.5 MHz
Common traffic adv. frequency (CTAF) - 126.7 MHz

Airport informations:
Latitude: 20° 29' 42.00" S
Longitude: 148° 33' 08.00" E
Elevation: 82 feet - 25 meters
Operating hours: N/A
Operating agency: Civil government, landing fees and diplomatic clearance may be required
Timezone: UTC+10
Fuel: Jet A1, without icing nhibitor.

100/130 MIL Spec, low lead, aviation gasoline (BLUE)

Runway information:
06/24 - 3609 x 98 feet< - >1100 x 30 meters
11/29 - 6801 x 148 feet< - >2073 x 45 meters

Recent METARs:
YBPN 141700Z AUTO 21004KT 9999 // SCT040 SCT046 20/19 Q1013
YBPN 141700Z AUTO 21004KT 9999 // SCT040 SCT046 20/19 Q1013
YBPN 141800Z AUTO 25003KT 9999 // SCT027 20/18 Q1014

Airport on the map: